CPX414 Details

Departure: Chicago/Rockford International Airport (KRFD)
Arrival: Sacramento International Airport (KSMF) at N/A
Route: DBQ J94 BFF J157 LAR TCH J154 BAM J94 LLC ANAHO SLMMR3
Notes:


Current Weather Information
KRFD 251154Z 08006KT 10SM BKN049 BKN070 15/12 A3015 RMK AO2 SLP209 T01500117 10156 20150 58001
KSMF 251153Z 16007KT 10SM CLR 21/12 A2991 RMK AO2 SLP126 T02110122 10239 20211 51003 $